Kardla, Estonia

9:39 AM EEST on September 23, 2014 (GMT +0300)
Kardla | Change Station
CLOSE
Current Station
Airport
Location: KARDLA,
Elevation: 13 ft
Nearby Weather Stations

Elev 13 ft 58.99 °N, 22.83 °E | Updated 49 minutes ago

Overcast
Overcast
43 °F
Feels Like 33 °F
N
28
Wind Variable Wind from North

Today
High -- | Low -- °F
--% Chance of Precip.
Yesterday
High -- | Low -- °F
Precip. -- in
7:14 AM 7:26 PM
Waning Crescent, 1% visible
Pressure 29.68 in
Visibility 6.2 miles
Clouds Mostly Cloudy 1700 ft
Overcast 2500 ft
Windchill 33 °F
Dew Point 37 °F
Humidity 81%
Rainfall 0.00 in
Snow Depth Not available.
UV 0 out of 12
Pollen Not available.
Air Quality Not available.
Flu Activity Not available.
METAR EEKA 230550Z 36024KT 9999 BKN017 OVC025 06/03 Q1005

More Conditions Fewer Conditions

Pressure 29.68 in
Visibility 6.2 miles
Clouds Mostly Cloudy 1700 ft
Overcast 2500 ft
Windchill 33 °F
Dew Point 37 °F
Humidity 81%
Rainfall 0.00 in
Snow Depth Not available.
UV 0 out of 12
Pollen Not available.
Air Quality Not available.
Flu Activity Not available.
METAR EEKA 230550Z 36024KT 9999 BKN017 OVC025 06/03 Q1005

More Conditions Fewer Conditions

10-Day Weather Forecast

Almanac

Astronomy

Sep. 23, 2014 Rise Set
Actual Time 7:14 AM EEST 7:26 PM EEST
Civil Twilight 6:34 AM EEST 8:06 PM EEST
Nautical Twilight 5:46 AM EEST 8:54 PM EEST
Astronomical Twilight 4:53 AM EEST 9:46 PM EEST
Moon 6:15 AM EEST 6:54 PM EEST
Length of Visible Light 13h 31m
Length of Day
12h 11m
Tomorrow will be 5m 12s shorter.
Waning Crescent, 1% of the Moon is Illuminated
Today
Waning Crescent
Sep 24
New
Oct 1
First Quarter
Oct 8
Full
Oct 15
Last Quarter

Yesterday's Extremes

Country Highs Country Lows

Community

WunderPhotos

Upload Photos

1,755,608 photos uploaded!

Nearby

Snow Depth

Not available.

Earthquake Activity

City Distance Mag. Time & Date
No recent earthquake activity has been reported nearby.
Minimum magnitude displayed is 2.5.

Coastal Water Temperatures

Place Temperature
No Stations Reporting

Nearby Weather Stations